KOPF/OPF METAR and TAF weather

Enter ICAO airport designator
Station Type Date Time Source
KOPF METAR 2019/04/19 07:53 UTC NOAA

KOPF 190753Z AUTO 15016KT 10SM FEW027 SCT043 26/21 A2991 RMK AO2 SLP129 T02610211


Station Type Date Time Source
KOPF Decoded METAR 2019/04/19 07:53 UTC NOAA

MIAMI OPA LOCKA AIRPORT, FL, United States (KOPF) 25-54N 80-17W 16M
Apr 19, 2019 - 03:53 AM EDT / 2019.04.19 0753 UTC
Wind: from the SSE (150 degrees) at 18 MPH (16 KT):0
Visibility: 10 mile(s):0
Sky conditions: partly cloudy
Temperature: 79.0 F (26.1 C)
Dew Point: 70.0 F (21.1 C)
Relative Humidity: 73%
Pressure (altimeter): 29.91 in. Hg (1012 hPa)
ob: KOPF 190753Z AUTO 15016KT 10SM FEW027 SCT043 26/21 A2991 RMK AO2 SLP129 T02610211
cycle: 8

Station Type Date Time Source
KOPF TAF 2019/04/19 06:45 UTC NOAA

TAF KOPF 190543Z 1906/2006 15013KT P6SM SCT025 SCT030 BKN250
FM191200 16014G25KT P6SM VCSH SCT025 BKN050
FM191700 21020G30KT P6SM VCTS SCT025CB BKN050 PROB30 1919/2001 6SM TSRA BKN020CB BKN040
FM200100 24011KT P6SM VCTS SCT030CB BKN070 BKN250

Example: see airport list